sensor_id;sensor_type;location;lat;lon;timestamp;P1;durP1;ratioP1;P2;durP2;ratioP2
29240;SDS011;16268;49.880;8.648;2023-04-01T00:00:46;6.40;;;1.40;;
29240;SDS011;16268;49.880;8.648;2023-04-01T00:03:11;6.65;;;1.30;;
29240;SDS011;16268;49.880;8.648;2023-04-01T00:05:37;7.80;;;1.55;;
29240;SDS011;16268;49.880;8.648;2023-04-01T00:08:03;6.13;;;1.35;;
29240;SDS011;16268;49.880;8.648;2023-04-01T00:10:28;8.52;;;1.60;;
29240;SDS011;16268;49.880;8.648;2023-04-01T00:12:54;14.13;;;5.82;;
29240;SDS011;16268;49.880;8.648;2023-04-01T00:15:20;5.75;;;1.40;;
29240;SDS011;16268;49.880;8.648;2023-04-01T00:17:45;7.60;;;1.60;;
29240;SDS011;16268;49.880;8.648;2023-04-01T00:20:11;7.95;;;1.30;;
29240;SDS011;16268;49.880;8.648;2023-04-01T00:22:39;4.85;;;1.30;;
29240;SDS011;16268;49.880;8.648;2023-04-01T00:25:05;6.50;;;1.45;;
29240;SDS011;16268;49.880;8.648;2023-04-01T00:27:32;4.15;;;1.20;;
29240;SDS011;16268;49.880;8.648;2023-04-01T00:29:58;7.82;;;1.60;;
29240;SDS011;16268;49.880;8.648;2023-04-01T00:32:24;7.53;;;1.50;;
29240;SDS011;16268;49.880;8.648;2023-04-01T00:34:51;5.78;;;1.38;;
29240;SDS011;16268;49.880;8.648;2023-04-01T00:37:17;6.07;;;1.20;;
29240;SDS011;16268;49.880;8.648;2023-04-01T00:39:44;7.15;;;1.83;;
29240;SDS011;16268;49.880;8.648;2023-04-01T00:42:09;6.03;;;1.30;;
29240;SDS011;16268;49.880;8.648;2023-04-01T00:44:39;6.65;;;1.23;;
29240;SDS011;16268;49.880;8.648;2023-04-01T00:47:05;7.93;;;1.35;;
29240;SDS011;16268;49.880;8.648;2023-04-01T00:49:40;8.63;;;1.63;;
29240;SDS011;16268;49.880;8.648;2023-04-01T00:52:10;7.10;;;1.45;;
29240;SDS011;16268;49.880;8.648;2023-04-01T00:54:38;6.93;;;1.35;;
29240;SDS011;16268;49.880;8.648;2023-04-01T00:57:21;8.10;;;1.73;;
29240;SDS011;16268;49.880;8.648;2023-04-01T00:59:57;8.10;;;1.50;;
29240;SDS011;16268;49.880;8.648;2023-04-01T01:02:24;6.45;;;1.20;;
29240;SDS011;16268;49.880;8.648;2023-04-01T01:04:50;5.95;;;1.48;;
29240;SDS011;16268;49.880;8.648;2023-04-01T01:10:01;6.43;;;1.40;;
29240;SDS011;16268;49.880;8.648;2023-04-01T01:15:37;6.22;;;1.55;;
29240;SDS011;16268;49.880;8.648;2023-04-01T01:26:53;6.47;;;1.23;;
29240;SDS011;16268;49.880;8.648;2023-04-01T01:32:25;8.25;;;1.58;;
29240;SDS011;16268;49.880;8.648;2023-04-01T01:35:09;5.88;;;1.33;;
29240;SDS011;16268;49.880;8.648;2023-04-01T01:37:54;6.10;;;1.40;;
29240;SDS011;16268;49.880;8.648;2023-04-01T01:40:23;8.07;;;1.40;;
29240;SDS011;16268;49.880;8.648;2023-04-01T01:42:52;7.28;;;1.40;;
29240;SDS011;16268;49.880;8.648;2023-04-01T01:45:21;5.10;;;1.10;;
29240;SDS011;16268;49.880;8.648;2023-04-01T01:47:50;5.95;;;1.30;;
29240;SDS011;16268;49.880;8.648;2023-04-01T01:50:17;7.45;;;1.50;;
29240;SDS011;16268;49.880;8.648;2023-04-01T01:52:44;6.72;;;1.33;;
29240;SDS011;16268;49.880;8.648;2023-04-01T01:55:25;6.55;;;1.50;;
29240;SDS011;16268;49.880;8.648;2023-04-01T01:57:59;6.50;;;1.02;;
29240;SDS011;16268;49.880;8.648;2023-04-01T02:01:06;4.20;;;1.02;;
29240;SDS011;16268;49.880;8.648;2023-04-01T02:03:33;6.72;;;1.42;;
29240;SDS011;16268;49.880;8.648;2023-04-01T02:06:02;7.03;;;1.35;;
29240;SDS011;16268;49.880;8.648;2023-04-01T02:08:34;5.63;;;1.30;;
29240;SDS011;16268;49.880;8.648;2023-04-01T02:11:06;3.28;;;1.08;;
29240;SDS011;16268;49.880;8.648;2023-04-01T02:13:39;7.78;;;1.40;;
29240;SDS011;16268;49.880;8.648;2023-04-01T02:16:17;7.22;;;1.30;;
29240;SDS011;16268;49.880;8.648;2023-04-01T02:18:51;4.75;;;0.98;;
29240;SDS011;16268;49.880;8.648;2023-04-01T02:21:20;5.15;;;1.30;;
29240;SDS011;16268;49.880;8.648;2023-04-01T02:23:49;6.43;;;1.10;;
29240;SDS011;16268;49.880;8.648;2023-04-01T02:26:17;5.93;;;1.23;;
29240;SDS011;16268;49.880;8.648;2023-04-01T02:28:45;8.32;;;1.35;;
29240;SDS011;16268;49.880;8.648;2023-04-01T02:31:13;5.93;;;1.42;;
29240;SDS011;16268;49.880;8.648;2023-04-01T02:33:40;6.97;;;1.50;;
29240;SDS011;16268;49.880;8.648;2023-04-01T02:36:10;5.32;;;1.30;;
29240;SDS011;16268;49.880;8.648;2023-04-01T02:38:39;5.75;;;1.30;;
29240;SDS011;16268;49.880;8.648;2023-04-01T02:41:06;5.35;;;1.48;;
29240;SDS011;16268;49.880;8.648;2023-04-01T02:43:32;6.32;;;1.20;;
29240;SDS011;16268;49.880;8.648;2023-04-01T02:45:58;5.45;;;1.02;;
29240;SDS011;16268;49.880;8.648;2023-04-01T02:48:24;7.28;;;1.30;;
29240;SDS011;16268;49.880;8.648;2023-04-01T02:50:50;5.68;;;1.08;;
29240;SDS011;16268;49.880;8.648;2023-04-01T02:53:15;5.93;;;1.30;;
29240;SDS011;16268;49.880;8.648;2023-04-01T02:55:41;7.25;;;1.38;;
29240;SDS011;16268;49.880;8.648;2023-04-01T02:58:07;6.82;;;1.52;;
29240;SDS011;16268;49.880;8.648;2023-04-01T03:00:33;5.20;;;1.25;;
29240;SDS011;16268;49.880;8.648;2023-04-01T03:02:59;5.13;;;1.20;;
29240;SDS011;16268;49.880;8.648;2023-04-01T03:05:25;6.85;;;1.52;;
29240;SDS011;16268;49.880;8.648;2023-04-01T03:07:50;5.25;;;1.20;;
29240;SDS011;16268;49.880;8.648;2023-04-01T03:10:16;7.55;;;1.48;;
29240;SDS011;16268;49.880;8.648;2023-04-01T03:12:42;8.07;;;1.27;;
29240;SDS011;16268;49.880;8.648;2023-04-01T03:15:09;6.60;;;1.55;;
29240;SDS011;16268;49.880;8.648;2023-04-01T03:17:37;8.82;;;1.45;;
29240;SDS011;16268;49.880;8.648;2023-04-01T03:20:03;8.00;;;1.30;;
29240;SDS011;16268;49.880;8.648;2023-04-01T03:22:30;5.47;;;1.10;;
29240;SDS011;16268;49.880;8.648;2023-04-01T03:24:55;4.68;;;1.40;;
29240;SDS011;16268;49.880;8.648;2023-04-01T03:27:21;4.95;;;1.10;;
29240;SDS011;16268;49.880;8.648;2023-04-01T03:29:48;4.95;;;1.10;;
29240;SDS011;16268;49.880;8.648;2023-04-01T03:32:14;6.70;;;1.50;;
29240;SDS011;16268;49.880;8.648;2023-04-01T03:34:39;4.85;;;1.15;;
29240;SDS011;16268;49.880;8.648;2023-04-01T03:37:05;6.50;;;1.10;;
29240;SDS011;16268;49.880;8.648;2023-04-01T03:39:31;9.15;;;1.65;;
29240;SDS011;16268;49.880;8.648;2023-04-01T03:41:57;7.97;;;1.30;;
29240;SDS011;16268;49.880;8.648;2023-04-01T03:44:23;4.63;;;1.08;;
29240;SDS011;16268;49.880;8.648;2023-04-01T03:46:48;4.63;;;1.35;;
29240;SDS011;16268;49.880;8.648;2023-04-01T03:49:14;4.90;;;1.27;;
29240;SDS011;16268;49.880;8.648;2023-04-01T03:51:40;7.35;;;1.58;;
29240;SDS011;16268;49.880;8.648;2023-04-01T03:54:07;6.85;;;1.20;;
29240;SDS011;16268;49.880;8.648;2023-04-01T03:56:34;7.05;;;1.20;;
29240;SDS011;16268;49.880;8.648;2023-04-01T03:59:04;5.93;;;1.45;;
29240;SDS011;16268;49.880;8.648;2023-04-01T04:01:31;7.60;;;1.13;;
29240;SDS011;16268;49.880;8.648;2023-04-01T04:03:56;7.10;;;1.33;;
29240;SDS011;16268;49.880;8.648;2023-04-01T04:06:22;6.95;;;1.30;;
29240;SDS011;16268;49.880;8.648;2023-04-01T04:08:49;6.22;;;1.15;;
29240;SDS011;16268;49.880;8.648;2023-04-01T04:11:14;7.80;;;1.27;;
29240;SDS011;16268;49.880;8.648;2023-04-01T04:13:41;5.70;;;1.30;;
29240;SDS011;16268;49.880;8.648;2023-04-01T04:16:07;5.50;;;1.20;;
29240;SDS011;16268;49.880;8.648;2023-04-01T04:18:34;6.00;;;1.10;;
29240;SDS011;16268;49.880;8.648;2023-04-01T04:21:00;6.72;;;1.35;;
29240;SDS011;16268;49.880;8.648;2023-04-01T04:23:26;4.43;;;1.05;;
29240;SDS011;16268;49.880;8.648;2023-04-01T04:25:54;4.97;;;1.20;;
29240;SDS011;16268;49.880;8.648;2023-04-01T04:28:20;6.22;;;1.08;;
29240;SDS011;16268;49.880;8.648;2023-04-01T04:30:46;5.32;;;1.40;;
29240;SDS011;16268;49.880;8.648;2023-04-01T04:33:11;4.57;;;1.20;;
29240;SDS011;16268;49.880;8.648;2023-04-01T04:35:37;4.65;;;1.02;;
29240;SDS011;16268;49.880;8.648;2023-04-01T04:38:02;5.85;;;1.13;;
29240;SDS011;16268;49.880;8.648;2023-04-01T04:40:28;3.90;;;0.93;;
29240;SDS011;16268;49.880;8.648;2023-04-01T04:42:53;7.20;;;1.20;;
29240;SDS011;16268;49.880;8.648;2023-04-01T04:45:19;8.98;;;1.67;;
29240;SDS011;16268;49.880;8.648;2023-04-01T04:47:45;6.03;;;1.30;;
29240;SDS011;16268;49.880;8.648;2023-04-01T04:50:10;7.75;;;1.60;;
29240;SDS011;16268;49.880;8.648;2023-04-01T04:52:36;3.78;;;1.05;;
29240;SDS011;16268;49.880;8.648;2023-04-01T04:55:02;5.20;;;1.40;;
29240;SDS011;16268;49.880;8.648;2023-04-01T04:57:28;4.97;;;0.98;;
29240;SDS011;16268;49.880;8.648;2023-04-01T04:59:54;5.15;;;1.42;;
29240;SDS011;16268;49.880;8.648;2023-04-01T05:02:19;7.70;;;1.30;;
29240;SDS011;16268;49.880;8.648;2023-04-01T05:04:45;5.13;;;1.02;;
29240;SDS011;16268;49.880;8.648;2023-04-01T05:07:11;6.80;;;1.30;;
29240;SDS011;16268;49.880;8.648;2023-04-01T05:09:36;4.07;;;1.10;;
29240;SDS011;16268;49.880;8.648;2023-04-01T05:12:02;5.22;;;0.85;;
29240;SDS011;16268;49.880;8.648;2023-04-01T05:14:28;4.18;;;1.33;;
29240;SDS011;16268;49.880;8.648;2023-04-01T05:16:53;3.70;;;0.88;;
29240;SDS011;16268;49.880;8.648;2023-04-01T05:19:19;3.80;;;1.10;;
29240;SDS011;16268;49.880;8.648;2023-04-01T05:21:45;6.60;;;1.15;;
29240;SDS011;16268;49.880;8.648;2023-04-01T05:24:11;4.80;;;1.25;;
29240;SDS011;16268;49.880;8.648;2023-04-01T05:26:37;4.95;;;1.20;;
29240;SDS011;16268;49.880;8.648;2023-04-01T05:29:03;4.60;;;1.00;;
29240;SDS011;16268;49.880;8.648;2023-04-01T05:31:29;4.40;;;1.20;;
29240;SDS011;16268;49.880;8.648;2023-04-01T05:33:55;5.85;;;1.08;;
29240;SDS011;16268;49.880;8.648;2023-04-01T05:36:21;5.32;;;1.30;;
29240;SDS011;16268;49.880;8.648;2023-04-01T05:38:47;4.55;;;0.90;;
29240;SDS011;16268;49.880;8.648;2023-04-01T05:41:13;5.40;;;1.25;;
29240;SDS011;16268;49.880;8.648;2023-04-01T05:43:40;3.38;;;0.98;;
29240;SDS011;16268;49.880;8.648;2023-04-01T05:46:06;4.45;;;1.20;;
29240;SDS011;16268;49.880;8.648;2023-04-01T05:48:33;4.82;;;1.00;;
29240;SDS011;16268;49.880;8.648;2023-04-01T05:51:03;4.43;;;0.95;;
29240;SDS011;16268;49.880;8.648;2023-04-01T05:53:29;5.05;;;1.05;;
29240;SDS011;16268;49.880;8.648;2023-04-01T05:55:55;3.83;;;1.00;;
29240;SDS011;16268;49.880;8.648;2023-04-01T05:58:21;3.08;;;0.93;;
29240;SDS011;16268;49.880;8.648;2023-04-01T06:00:47;4.55;;;1.00;;
29240;SDS011;16268;49.880;8.648;2023-04-01T06:03:12;6.38;;;1.25;;
29240;SDS011;16268;49.880;8.648;2023-04-01T06:05:42;4.10;;;1.10;;
29240;SDS011;16268;49.880;8.648;2023-04-01T06:08:13;2.30;;;0.82;;
29240;SDS011;16268;49.880;8.648;2023-04-01T06:16:22;4.22;;;1.17;;
29240;SDS011;16268;49.880;8.648;2023-04-01T06:32:34;3.97;;;1.00;;
29240;SDS011;16268;49.880;8.648;2023-04-01T06:35:22;5.20;;;0.98;;
29240;SDS011;16268;49.880;8.648;2023-04-01T06:41:00;2.78;;;0.65;;
29240;SDS011;16268;49.880;8.648;2023-04-01T06:49:21;3.40;;;0.63;;
29240;SDS011;16268;49.880;8.648;2023-04-01T06:51:59;3.10;;;0.85;;
29240;SDS011;16268;49.880;8.648;2023-04-01T06:54:38;3.67;;;0.77;;
29240;SDS011;16268;49.880;8.648;2023-04-01T07:05:58;3.00;;;0.70;;
29240;SDS011;16268;49.880;8.648;2023-04-01T07:08:29;2.80;;;0.80;;
29240;SDS011;16268;49.880;8.648;2023-04-01T07:11:01;3.63;;;0.80;;
29240;SDS011;16268;49.880;8.648;2023-04-01T07:16:19;3.07;;;0.63;;
29240;SDS011;16268;49.880;8.648;2023-04-01T07:18:54;2.88;;;0.85;;
29240;SDS011;16268;49.880;8.648;2023-04-01T07:21:33;5.15;;;1.00;;
29240;SDS011;16268;49.880;8.648;2023-04-01T07:24:13;3.13;;;0.95;;
29240;SDS011;16268;49.880;8.648;2023-04-01T07:27:01;2.85;;;0.75;;
29240;SDS011;16268;49.880;8.648;2023-04-01T07:29:26;2.65;;;0.80;;
29240;SDS011;16268;49.880;8.648;2023-04-01T07:34:43;2.70;;;0.55;;
29240;SDS011;16268;49.880;8.648;2023-04-01T07:37:32;3.25;;;0.77;;
29240;SDS011;16268;49.880;8.648;2023-04-01T07:43:17;2.97;;;0.70;;
29240;SDS011;16268;49.880;8.648;2023-04-01T07:45:51;3.58;;;0.77;;
29240;SDS011;16268;49.880;8.648;2023-04-01T07:48:35;4.47;;;1.00;;
29240;SDS011;16268;49.880;8.648;2023-04-01T07:53:47;1.73;;;0.57;;
29240;SDS011;16268;49.880;8.648;2023-04-01T07:58:58;3.85;;;0.77;;
29240;SDS011;16268;49.880;8.648;2023-04-01T08:01:44;3.20;;;0.70;;
29240;SDS011;16268;49.880;8.648;2023-04-01T08:07:24;2.78;;;0.70;;
29240;SDS011;16268;49.880;8.648;2023-04-01T08:10:07;2.50;;;0.65;;
29240;SDS011;16268;49.880;8.648;2023-04-01T08:13:06;2.03;;;0.70;;
29240;SDS011;16268;49.880;8.648;2023-04-01T08:20:59;2.33;;;0.60;;
29240;SDS011;16268;49.880;8.648;2023-04-01T08:23:45;2.88;;;0.60;;
29240;SDS011;16268;49.880;8.648;2023-04-01T08:26:20;2.80;;;0.80;;
29240;SDS011;16268;49.880;8.648;2023-04-01T08:29:04;3.72;;;1.15;;
29240;SDS011;16268;49.880;8.648;2023-04-01T08:34:30;3.63;;;0.70;;
29240;SDS011;16268;49.880;8.648;2023-04-01T08:37:08;1.98;;;0.60;;
29240;SDS011;16268;49.880;8.648;2023-04-01T08:39:49;2.85;;;0.70;;
29240;SDS011;16268;49.880;8.648;2023-04-01T08:47:26;2.45;;;0.60;;
29240;SDS011;16268;49.880;8.648;2023-04-01T08:50:05;1.70;;;0.50;;
29240;SDS011;16268;49.880;8.648;2023-04-01T08:53:00;3.00;;;0.70;;
29240;SDS011;16268;49.880;8.648;2023-04-01T08:55:47;2.88;;;0.70;;
29240;SDS011;16268;49.880;8.648;2023-04-01T09:04:45;1.98;;;0.57;;
29240;SDS011;16268;49.880;8.648;2023-04-01T09:15:53;1.83;;;0.75;;
29240;SDS011;16268;49.880;8.648;2023-04-01T09:18:59;2.33;;;0.80;;
29240;SDS011;16268;49.880;8.648;2023-04-01T09:24:06;3.10;;;0.82;;
29240;SDS011;16268;49.880;8.648;2023-04-01T09:32:33;3.10;;;0.68;;
29240;SDS011;16268;49.880;8.648;2023-04-01T10:02:25;2.42;;;0.40;;
29240;SDS011;16268;49.880;8.648;2023-04-01T10:10:49;2.70;;;0.45;;
29240;SDS011;16268;49.880;8.648;2023-04-01T10:13:36;2.08;;;0.45;;
29240;SDS011;16268;49.880;8.648;2023-04-01T10:33:38;1.50;;;0.60;;
29240;SDS011;16268;49.880;8.648;2023-04-01T10:50:48;2.35;;;0.73;;
29240;SDS011;16268;49.880;8.648;2023-04-01T11:13:54;2.42;;;0.70;;
29240;SDS011;16268;49.880;8.648;2023-04-01T11:21:57;1.10;;;0.43;;
29240;SDS011;16268;49.880;8.648;2023-04-01T11:27:37;2.13;;;0.40;;
29240;SDS011;16268;49.880;8.648;2023-04-01T11:32:52;1.00;;;0.50;;
29240;SDS011;16268;49.880;8.648;2023-04-01T11:41:19;1.35;;;0.60;;
29240;SDS011;16268;49.880;8.648;2023-04-01T11:44:28;2.20;;;0.50;;
29240;SDS011;16268;49.880;8.648;2023-04-01T11:50:01;1.98;;;0.70;;
29240;SDS011;16268;49.880;8.648;2023-04-01T11:55:40;0.85;;;0.45;;
29240;SDS011;16268;49.880;8.648;2023-04-01T11:58:13;3.78;;;1.00;;
29240;SDS011;16268;49.880;8.648;2023-04-01T12:00:58;1.80;;;0.70;;
29240;SDS011;16268;49.880;8.648;2023-04-01T12:09:27;3.08;;;0.80;;
29240;SDS011;16268;49.880;8.648;2023-04-01T12:12:06;2.13;;;0.60;;
29240;SDS011;16268;49.880;8.648;2023-04-01T12:17:39;1.83;;;0.60;;
29240;SDS011;16268;49.880;8.648;2023-04-01T12:23:06;2.00;;;0.60;;
29240;SDS011;16268;49.880;8.648;2023-04-01T12:34:51;1.73;;;0.60;;
29240;SDS011;16268;49.880;8.648;2023-04-01T12:37:35;2.33;;;0.60;;
29240;SDS011;16268;49.880;8.648;2023-04-01T12:56:46;1.23;;;0.65;;
29240;SDS011;16268;49.880;8.648;2023-04-01T13:02:19;1.77;;;0.63;;
29240;SDS011;16268;49.880;8.648;2023-04-01T13:09:53;1.55;;;0.63;;
29240;SDS011;16268;49.880;8.648;2023-04-01T13:12:43;2.70;;;0.88;;
29240;SDS011;16268;49.880;8.648;2023-04-01T13:15:28;2.22;;;0.82;;
29240;SDS011;16268;49.880;8.648;2023-04-01T13:18:13;3.03;;;1.20;;
29240;SDS011;16268;49.880;8.648;2023-04-01T13:21:01;2.78;;;1.20;;
29240;SDS011;16268;49.880;8.648;2023-04-01T13:23:35;3.42;;;1.05;;
29240;SDS011;16268;49.880;8.648;2023-04-01T13:29:11;3.03;;;0.77;;
29240;SDS011;16268;49.880;8.648;2023-04-01T13:31:50;2.28;;;0.90;;
29240;SDS011;16268;49.880;8.648;2023-04-01T13:39:25;2.97;;;0.60;;
29240;SDS011;16268;49.880;8.648;2023-04-01T13:47:44;4.10;;;0.93;;
29240;SDS011;16268;49.880;8.648;2023-04-01T13:54:07;2.78;;;1.27;;
29240;SDS011;16268;49.880;8.648;2023-04-01T13:56:57;1.23;;;0.50;;
29240;SDS011;16268;49.880;8.648;2023-04-01T14:14:17;1.93;;;0.60;;
29240;SDS011;16268;49.880;8.648;2023-04-01T14:20:13;2.85;;;0.90;;
29240;SDS011;16268;49.880;8.648;2023-04-01T14:29:10;1.85;;;0.50;;
29240;SDS011;16268;49.880;8.648;2023-04-01T14:31:44;1.27;;;0.60;;
29240;SDS011;16268;49.880;8.648;2023-04-01T14:34:30;2.72;;;0.90;;
29240;SDS011;16268;49.880;8.648;2023-04-01T14:39:43;3.53;;;1.35;;
29240;SDS011;16268;49.880;8.648;2023-04-01T14:51:43;3.58;;;0.98;;
29240;SDS011;16268;49.880;8.648;2023-04-01T14:56:41;2.70;;;1.02;;
29240;SDS011;16268;49.880;8.648;2023-04-01T14:59:10;2.92;;;1.13;;
29240;SDS011;16268;49.880;8.648;2023-04-01T15:16:08;2.33;;;0.80;;
29240;SDS011;16268;49.880;8.648;2023-04-01T15:24:41;2.10;;;0.70;;
29240;SDS011;16268;49.880;8.648;2023-04-01T15:27:49;2.83;;;0.60;;
29240;SDS011;16268;49.880;8.648;2023-04-01T15:36:05;2.42;;;0.82;;
29240;SDS011;16268;49.880;8.648;2023-04-01T15:38:54;3.45;;;0.90;;
29240;SDS011;16268;49.880;8.648;2023-04-01T15:41:24;3.42;;;1.50;;
29240;SDS011;16268;49.880;8.648;2023-04-01T15:52:22;5.60;;;2.63;;
29240;SDS011;16268;49.880;8.648;2023-04-01T15:55:19;4.13;;;1.73;;
29240;SDS011;16268;49.880;8.648;2023-04-01T16:09:21;6.20;;;2.70;;
29240;SDS011;16268;49.880;8.648;2023-04-01T16:12:10;6.45;;;2.15;;
29240;SDS011;16268;49.880;8.648;2023-04-01T16:18:08;2.80;;;1.10;;
29240;SDS011;16268;49.880;8.648;2023-04-01T16:20:51;5.63;;;2.08;;
29240;SDS011;16268;49.880;8.648;2023-04-01T16:23:30;4.07;;;1.45;;
29240;SDS011;16268;49.880;8.648;2023-04-01T16:26:13;6.85;;;3.10;;
29240;SDS011;16268;49.880;8.648;2023-04-01T16:34:21;2.63;;;1.33;;
29240;SDS011;16268;49.880;8.648;2023-04-01T16:42:40;4.88;;;1.30;;
29240;SDS011;16268;49.880;8.648;2023-04-01T16:45:23;3.13;;;1.23;;
29240;SDS011;16268;49.880;8.648;2023-04-01T16:48:05;3.78;;;1.40;;
29240;SDS011;16268;49.880;8.648;2023-04-01T16:53:48;6.63;;;2.25;;
29240;SDS011;16268;49.880;8.648;2023-04-01T16:56:21;6.32;;;1.75;;
29240;SDS011;16268;49.880;8.648;2023-04-01T16:58:57;4.93;;;2.13;;
29240;SDS011;16268;49.880;8.648;2023-04-01T17:01:41;4.15;;;1.52;;
29240;SDS011;16268;49.880;8.648;2023-04-01T17:04:51;4.93;;;1.58;;
29240;SDS011;16268;49.880;8.648;2023-04-01T17:07:19;3.75;;;1.83;;
29240;SDS011;16268;49.880;8.648;2023-04-01T17:16:13;4.65;;;1.90;;
29240;SDS011;16268;49.880;8.648;2023-04-01T17:21:54;3.17;;;1.30;;
29240;SDS011;16268;49.880;8.648;2023-04-01T17:32:34;3.55;;;0.93;;
29240;SDS011;16268;49.880;8.648;2023-04-01T17:38:03;1.83;;;0.68;;
29240;SDS011;16268;49.880;8.648;2023-04-01T17:40:59;2.17;;;0.82;;
29240;SDS011;16268;49.880;8.648;2023-04-01T17:43:44;6.35;;;2.30;;
29240;SDS011;16268;49.880;8.648;2023-04-01T17:49:17;6.63;;;2.67;;
29240;SDS011;16268;49.880;8.648;2023-04-01T17:52:04;3.58;;;1.35;;
29240;SDS011;16268;49.880;8.648;2023-04-01T17:54:53;5.70;;;1.95;;
29240;SDS011;16268;49.880;8.648;2023-04-01T17:58:05;6.18;;;2.85;;
29240;SDS011;16268;49.880;8.648;2023-04-01T18:00:36;8.48;;;3.40;;
29240;SDS011;16268;49.880;8.648;2023-04-01T18:11:21;6.75;;;2.15;;
29240;SDS011;16268;49.880;8.648;2023-04-01T18:22:10;3.80;;;1.50;;
29240;SDS011;16268;49.880;8.648;2023-04-01T18:24:42;3.53;;;1.10;;
29240;SDS011;16268;49.880;8.648;2023-04-01T18:27:37;2.70;;;0.90;;
29240;SDS011;16268;49.880;8.648;2023-04-01T18:30:13;6.65;;;3.50;;
29240;SDS011;16268;49.880;8.648;2023-04-01T18:33:01;2.78;;;1.08;;
29240;SDS011;16268;49.880;8.648;2023-04-01T18:35:46;3.55;;;1.40;;
29240;SDS011;16268;49.880;8.648;2023-04-01T18:38:31;4.50;;;1.90;;
29240;SDS011;16268;49.880;8.648;2023-04-01T18:41:15;3.30;;;1.27;;
29240;SDS011;16268;49.880;8.648;2023-04-01T18:46:46;1.75;;;0.70;;
29240;SDS011;16268;49.880;8.648;2023-04-01T18:49:25;1.75;;;0.75;;
29240;SDS011;16268;49.880;8.648;2023-04-01T18:51:59;2.95;;;1.20;;
29240;SDS011;16268;49.880;8.648;2023-04-01T18:57:25;5.35;;;1.50;;
29240;SDS011;16268;49.880;8.648;2023-04-01T19:00:05;3.20;;;1.00;;
29240;SDS011;16268;49.880;8.648;2023-04-01T19:03:00;3.42;;;0.85;;
29240;SDS011;16268;49.880;8.648;2023-04-01T19:05:39;1.75;;;0.63;;
29240;SDS011;16268;49.880;8.648;2023-04-01T19:16:15;2.95;;;0.55;;
29240;SDS011;16268;49.880;8.648;2023-04-01T19:32:36;2.22;;;0.75;;
29240;SDS011;16268;49.880;8.648;2023-04-01T19:38:19;2.13;;;0.70;;
29240;SDS011;16268;49.880;8.648;2023-04-01T19:41:12;1.38;;;0.65;;
29240;SDS011;16268;49.880;8.648;2023-04-01T19:46:49;1.95;;;0.70;;
29240;SDS011;16268;49.880;8.648;2023-04-01T19:49:38;1.02;;;0.55;;
29240;SDS011;16268;49.880;8.648;2023-04-01T19:54:57;2.50;;;0.77;;
29240;SDS011;16268;49.880;8.648;2023-04-01T19:57:47;3.88;;;0.93;;
29240;SDS011;16268;49.880;8.648;2023-04-01T20:00:34;4.57;;;0.80;;
29240;SDS011;16268;49.880;8.648;2023-04-01T20:03:09;2.05;;;0.60;;
29240;SDS011;16268;49.880;8.648;2023-04-01T20:08:21;4.00;;;0.75;;
29240;SDS011;16268;49.880;8.648;2023-04-01T20:16:50;4.63;;;0.80;;
29240;SDS011;16268;49.880;8.648;2023-04-01T20:19:19;1.85;;;0.80;;
29240;SDS011;16268;49.880;8.648;2023-04-01T20:21:52;2.25;;;1.00;;
29240;SDS011;16268;49.880;8.648;2023-04-01T20:24:30;2.90;;;0.90;;
29240;SDS011;16268;49.880;8.648;2023-04-01T20:27:09;4.20;;;1.20;;
29240;SDS011;16268;49.880;8.648;2023-04-01T20:32:29;3.53;;;0.90;;
29240;SDS011;16268;49.880;8.648;2023-04-01T20:37:54;2.03;;;0.90;;
29240;SDS011;16268;49.880;8.648;2023-04-01T20:40:41;2.35;;;0.82;;
29240;SDS011;16268;49.880;8.648;2023-04-01T20:51:31;2.78;;;1.10;;
29240;SDS011;16268;49.880;8.648;2023-04-01T20:54:20;2.85;;;1.00;;
29240;SDS011;16268;49.880;8.648;2023-04-01T20:59:50;2.22;;;0.90;;
29240;SDS011;16268;49.880;8.648;2023-04-01T21:02:47;3.08;;;0.90;;
29240;SDS011;16268;49.880;8.648;2023-04-01T21:19:36;2.38;;;0.85;;
29240;SDS011;16268;49.880;8.648;2023-04-01T21:22:11;2.20;;;0.90;;
29240;SDS011;16268;49.880;8.648;2023-04-01T21:27:23;2.80;;;0.90;;
29240;SDS011;16268;49.880;8.648;2023-04-01T21:36:07;1.92;;;0.80;;
29240;SDS011;16268;49.880;8.648;2023-04-01T21:41:55;2.03;;;0.90;;
29240;SDS011;16268;49.880;8.648;2023-04-01T21:44:43;2.60;;;0.80;;
29240;SDS011;16268;49.880;8.648;2023-04-01T21:53:09;2.03;;;0.80;;
29240;SDS011;16268;49.880;8.648;2023-04-01T22:01:38;2.75;;;1.00;;
29240;SDS011;16268;49.880;8.648;2023-04-01T22:04:56;4.28;;;1.10;;
29240;SDS011;16268;49.880;8.648;2023-04-01T22:13:03;2.63;;;0.90;;
29240;SDS011;16268;49.880;8.648;2023-04-01T22:18:22;2.95;;;1.00;;
29240;SDS011;16268;49.880;8.648;2023-04-01T22:29:06;2.53;;;1.13;;
29240;SDS011;16268;49.880;8.648;2023-04-01T22:37:15;2.50;;;1.02;;
29240;SDS011;16268;49.880;8.648;2023-04-01T22:39:51;2.17;;;1.10;;
29240;SDS011;16268;49.880;8.648;2023-04-01T22:42:41;2.50;;;0.90;;
29240;SDS011;16268;49.880;8.648;2023-04-01T22:53:57;2.58;;;1.15;;
29240;SDS011;16268;49.880;8.648;2023-04-01T22:56:39;3.08;;;1.40;;
29240;SDS011;16268;49.880;8.648;2023-04-01T23:02:25;4.45;;;1.55;;
29240;SDS011;16268;49.880;8.648;2023-04-01T23:04:59;3.65;;;1.42;;
29240;SDS011;16268;49.880;8.648;2023-04-01T23:13:18;4.22;;;1.77;;
29240;SDS011;16268;49.880;8.648;2023-04-01T23:15:51;3.90;;;1.40;;
29240;SDS011;16268;49.880;8.648;2023-04-01T23:18:20;3.42;;;1.50;;
29240;SDS011;16268;49.880;8.648;2023-04-01T23:23:30;4.50;;;1.60;;
29240;SDS011;16268;49.880;8.648;2023-04-01T23:26:17;4.78;;;1.50;;
29240;SDS011;16268;49.880;8.648;2023-04-01T23:29:08;3.83;;;1.42;;
29240;SDS011;16268;49.880;8.648;2023-04-01T23:31:39;4.22;;;1.50;;
29240;SDS011;16268;49.880;8.648;2023-04-01T23:36:42;4.18;;;1.70;;
29240;SDS011;16268;49.880;8.648;2023-04-01T23:41:56;4.35;;;1.80;;
29240;SDS011;16268;49.880;8.648;2023-04-01T23:44:25;5.85;;;2.40;;
29240;SDS011;16268;49.880;8.648;2023-04-01T23:46:53;4.72;;;2.42;;
29240;SDS011;16268;49.880;8.648;2023-04-01T23:49:24;4.07;;;2.20;;
29240;SDS011;16268;49.880;8.648;2023-04-01T23:51:59;7.07;;;2.70;;
29240;SDS011;16268;49.880;8.648;2023-04-01T23:54:30;4.18;;;2.40;;
29240;SDS011;16268;49.880;8.648;2023-04-01T23:57:14;5.38;;;2.92;;
29240;SDS011;16268;49.880;8.648;2023-04-01T23:59:58;5.45;;;3.28;;
